createdAt,value
2019-04-06T00:00:25.567Z,101534.31
2019-04-06T00:02:57.234Z,101529.94
2019-04-06T00:05:28.785Z,101532.13
2019-04-06T00:08:00.364Z,101530.83
2019-04-06T00:10:31.963Z,101524.69
2019-04-06T00:13:03.542Z,101526.41
2019-04-06T00:15:35.084Z,101528.62
2019-04-06T00:18:06.629Z,101522.88
2019-04-06T00:20:38.186Z,101518.07
2019-04-06T00:23:09.703Z,101522.02
2019-04-06T00:25:44.668Z,101521.59
2019-04-06T00:28:14.462Z,101517.67
2019-04-06T00:30:54.914Z,101520.73
2019-04-06T00:33:28.029Z,101516.78
2019-04-06T00:36:00.551Z,101521.17
2019-04-06T00:38:33.871Z,101515.05
2019-04-06T00:41:05.490Z,101517.66
2019-04-06T00:43:36.986Z,101522.02
2019-04-06T00:46:08.473Z,101517.63
2019-04-06T00:48:39.956Z,101521.50
2019-04-06T00:51:11.531Z,101521.97
2019-04-06T00:53:43.040Z,101517.58
2019-04-06T00:56:14.550Z,101517.10
2019-04-06T00:58:47.234Z,101515.86
2019-04-06T01:01:18.781Z,101518.50
2019-04-06T01:03:50.337Z,101508.41
2019-04-06T01:06:21.885Z,101507.91
2019-04-06T01:08:53.317Z,101510.58
2019-04-06T01:11:24.838Z,101512.38
2019-04-06T01:13:57.362Z,101512.74
2019-04-06T01:16:28.919Z,101521.14
2019-04-06T01:19:00.459Z,101519.83
2019-04-06T01:21:32.999Z,101524.63
2019-04-06T01:24:04.706Z,101525.06
2019-04-06T01:26:36.207Z,101523.30
2019-04-06T01:29:07.715Z,101521.11
2019-04-06T01:31:39.147Z,101525.45
2019-04-06T01:34:10.648Z,101521.08
2019-04-06T01:36:42.248Z,101524.13
2019-04-06T01:39:13.960Z,101525.45
2019-04-06T01:41:46.519Z,101532.84
2019-04-06T01:44:19.536Z,101528.87
2019-04-06T01:46:51.148Z,101531.45
2019-04-06T01:49:24.183Z,101533.28
2019-04-06T01:51:55.715Z,101529.78
2019-04-06T01:54:27.366Z,101531.50
2019-04-06T01:56:59.006Z,101529.72
2019-04-06T01:59:31.716Z,101525.78
2019-04-06T02:02:04.836Z,101535.00
2019-04-06T02:04:36.364Z,101525.31
2019-04-06T02:07:08.170Z,101526.62
2019-04-06T02:09:39.692Z,101530.08
2019-04-06T02:12:13.279Z,101535.36
2019-04-06T02:14:44.851Z,101541.86
2019-04-06T02:17:16.410Z,101539.25
2019-04-06T02:19:48.918Z,101533.92
2019-04-06T02:22:20.736Z,101546.22
2019-04-06T02:24:52.237Z,101544.80
2019-04-06T02:27:23.762Z,101547.81
2019-04-06T02:30:10.342Z,101543.85
2019-04-06T02:33:01.258Z,101551.34
2019-04-06T02:35:43.786Z,101550.42
2019-04-06T02:38:23.139Z,101551.66
2019-04-06T02:41:05.662Z,101551.14
2019-04-06T02:43:38.878Z,101545.45
2019-04-06T02:46:10.461Z,101547.12
2019-04-06T02:48:42.051Z,101551.58
2019-04-06T02:51:13.578Z,101549.44
2019-04-06T02:53:45.075Z,101552.09
2019-04-06T02:56:16.613Z,101553.84
2019-04-06T02:58:48.209Z,101553.45
2019-04-06T03:01:19.960Z,101552.97
2019-04-06T03:03:51.496Z,101555.48
2019-04-06T03:06:23.130Z,101554.61
2019-04-06T03:08:54.655Z,101556.36
2019-04-06T03:11:26.157Z,101556.28
2019-04-06T03:13:57.874Z,101561.56
2019-04-06T03:16:29.483Z,101556.22
2019-04-06T03:19:01.055Z,101552.72
2019-04-06T03:21:32.691Z,101560.27
2019-04-06T03:24:04.735Z,101555.87
2019-04-06T03:26:36.481Z,101554.51
2019-04-06T03:29:09.069Z,101562.40
2019-04-06T03:31:44.887Z,101568.66
2019-04-06T03:34:22.485Z,101567.27
2019-04-06T03:36:55.581Z,101563.45
2019-04-06T03:39:27.116Z,101560.41
2019-04-06T03:42:01.898Z,101565.16
2019-04-06T03:44:37.435Z,101561.36
2019-04-06T03:47:08.891Z,101557.46
2019-04-06T03:49:42.465Z,101566.76
2019-04-06T03:52:14.045Z,101573.36
2019-04-06T03:54:45.862Z,101568.97
2019-04-06T03:57:17.662Z,101572.41
2019-04-06T03:59:49.727Z,101571.97
2019-04-06T04:02:28.367Z,101576.05
2019-04-06T04:05:00.662Z,101574.28
2019-04-06T04:07:32.140Z,101579.52
2019-04-06T04:10:07.315Z,101564.72
2019-04-06T04:12:39.091Z,101567.34
2019-04-06T04:15:10.770Z,101577.44
2019-04-06T04:17:43.422Z,101577.08
2019-04-06T04:20:17.023Z,101578.83
2019-04-06T04:22:48.760Z,101576.34
2019-04-06T04:25:22.537Z,101583.48
2019-04-06T04:27:55.105Z,101579.29
2019-04-06T04:30:33.113Z,101585.54
2019-04-06T04:33:01.062Z,101577.31
2019-04-06T04:35:33.807Z,101576.59
2019-04-06T04:38:06.334Z,101578.59
2019-04-06T04:40:37.857Z,101574.50
2019-04-06T04:43:09.417Z,101572.31
2019-04-06T04:45:41.519Z,101577.55
2019-04-06T04:48:13.480Z,101574.43
2019-04-06T04:50:45.041Z,101576.53
2019-04-06T04:53:17.578Z,101580.98
2019-04-06T04:55:50.166Z,101580.88
2019-04-06T04:58:22.092Z,101584.91
2019-04-06T05:00:55.147Z,101586.22
2019-04-06T05:03:26.712Z,101575.56
2019-04-06T05:05:58.213Z,101578.41
2019-04-06T05:08:31.296Z,101579.42
2019-04-06T05:11:03.131Z,101579.63
2019-04-06T05:13:34.638Z,101575.48
2019-04-06T05:16:10.912Z,101577.04
2019-04-06T05:18:43.672Z,101579.49
2019-04-06T05:21:16.682Z,101588.54
2019-04-06T05:23:48.192Z,101583.66
2019-04-06T05:26:19.721Z,101578.08
2019-04-06T05:28:51.345Z,101578.50
2019-04-06T05:31:22.919Z,101574.87
2019-04-06T05:33:54.425Z,101575.11
2019-04-06T05:36:25.935Z,101576.98
2019-04-06T05:38:57.483Z,101567.55
2019-04-06T05:41:29.019Z,101570.75
2019-04-06T05:44:00.548Z,101574.72
2019-04-06T05:46:32.056Z,101572.09
2019-04-06T05:49:03.568Z,101574.02
2019-04-06T05:51:35.097Z,101568.05
2019-04-06T05:54:06.596Z,101575.87
2019-04-06T05:56:38.211Z,101566.79
2019-04-06T05:59:10.323Z,101572.81
2019-04-06T06:01:42.617Z,101572.54
2019-04-06T06:04:14.252Z,101570.09
2019-04-06T06:06:45.763Z,101574.03
2019-04-06T06:09:17.266Z,101573.55
2019-04-06T06:11:48.777Z,101571.63
2019-04-06T06:14:20.850Z,101574.88
2019-04-06T06:16:52.445Z,101567.75
2019-04-06T06:19:25.169Z,101575.56
2019-04-06T06:21:56.680Z,101573.74
2019-04-06T06:24:29.707Z,101575.63
2019-04-06T06:27:01.267Z,101576.08
2019-04-06T06:29:32.892Z,101572.33
2019-04-06T06:32:04.894Z,101571.18
2019-04-06T06:34:36.754Z,101576.95
2019-04-06T06:37:10.621Z,101574.27
2019-04-06T06:39:42.259Z,101568.43
2019-04-06T06:42:14.086Z,101566.44
2019-04-06T06:44:46.236Z,101565.73
2019-04-06T06:47:17.801Z,101565.44
2019-04-06T06:49:51.516Z,101573.53
2019-04-06T06:52:23.044Z,101566.87
2019-04-06T06:54:54.586Z,101559.00
2019-04-06T06:57:26.133Z,101562.38
2019-04-06T06:59:57.653Z,101560.13
2019-04-06T07:02:30.256Z,101560.50
2019-04-06T07:05:02.099Z,101568.87
2019-04-06T07:07:33.618Z,101557.90
2019-04-06T07:10:07.836Z,101550.38
2019-04-06T07:12:40.400Z,101565.45
2019-04-06T07:15:12.099Z,101557.72
2019-04-06T07:17:43.701Z,101560.36
2019-04-06T07:20:15.362Z,101564.17
2019-04-06T07:22:47.886Z,101557.39
2019-04-06T07:25:19.674Z,101556.83
2019-04-06T07:27:51.179Z,101563.52
2019-04-06T07:30:24.064Z,101556.70
2019-04-06T07:32:55.855Z,101555.50
2019-04-06T07:35:30.315Z,101552.47
2019-04-06T07:38:03.531Z,101557.66
2019-04-06T07:40:35.183Z,101560.77
2019-04-06T07:43:06.707Z,101555.03
2019-04-06T07:45:38.250Z,101561.12
2019-04-06T07:48:09.746Z,101557.30
2019-04-06T07:50:41.502Z,101547.05
2019-04-06T07:53:13.208Z,101548.48
2019-04-06T07:55:44.914Z,101552.83
2019-04-06T07:58:16.745Z,101545.71
2019-04-06T08:00:48.318Z,101534.48
2019-04-06T08:03:20.012Z,101555.16
2019-04-06T08:05:51.508Z,101544.94
2019-04-06T08:08:23.079Z,101537.80
2019-04-06T08:10:54.742Z,101538.78
2019-04-06T08:13:26.316Z,101531.83
2019-04-06T08:15:57.966Z,101533.74
2019-04-06T08:18:29.699Z,101526.41
2019-04-06T08:21:04.559Z,101522.77
2019-04-06T08:23:36.234Z,101521.20
2019-04-06T08:26:08.917Z,101521.80
2019-04-06T08:28:41.441Z,101519.13
2019-04-06T08:31:13.043Z,101523.62
2019-04-06T08:33:44.619Z,101520.81
2019-04-06T08:36:17.224Z,101518.63
2019-04-06T08:38:48.766Z,101511.28
2019-04-06T08:41:20.464Z,101514.63
2019-04-06T08:43:52.042Z,101512.14
2019-04-06T08:46:23.759Z,101515.34
2019-04-06T08:48:55.235Z,101518.30
2019-04-06T08:51:27.042Z,101508.27
2019-04-06T08:53:59.591Z,101504.06
2019-04-06T08:56:31.030Z,101505.58
2019-04-06T08:59:11.615Z,101503.66
2019-04-06T09:01:35.810Z,101505.31
2019-04-06T09:04:07.400Z,101501.47
2019-04-06T09:06:40.064Z,101499.80
2019-04-06T09:09:11.612Z,101504.41
2019-04-06T09:11:43.224Z,101497.50
2019-04-06T09:14:14.776Z,101513.38
2019-04-06T09:16:46.705Z,101501.83
2019-04-06T09:19:18.328Z,101500.86
2019-04-06T09:21:51.831Z,101495.86
2019-04-06T09:24:23.552Z,101499.30
2019-04-06T09:26:55.334Z,101500.14
2019-04-06T09:29:28.187Z,101499.77
2019-04-06T09:31:59.761Z,101495.64
2019-04-06T09:34:32.197Z,101493.39
2019-04-06T09:37:03.921Z,101494.08
2019-04-06T09:39:41.206Z,101495.81
2019-04-06T09:42:12.970Z,101489.55
2019-04-06T09:44:55.211Z,101494.20
2019-04-06T09:47:28.936Z,101495.69
2019-04-06T09:50:08.291Z,101491.52
2019-04-06T09:52:48.910Z,101493.38
2019-04-06T09:55:34.167Z,101495.30
2019-04-06T09:58:12.601Z,101494.83
2019-04-06T10:00:48.925Z,101497.22
2019-04-06T10:03:40.875Z,101486.58
2019-04-06T10:06:17.082Z,101479.70
2019-04-06T10:09:06.340Z,101486.03
2019-04-06T10:11:43.985Z,101498.05
2019-04-06T10:14:33.536Z,101483.16
2019-04-06T10:17:06.733Z,101480.66
2019-04-06T10:19:43.284Z,101484.27
2019-04-06T10:22:27.015Z,101472.33
2019-04-06T10:25:18.994Z,101472.67
2019-04-06T10:28:09.236Z,101469.78
2019-04-06T10:31:19.103Z,101465.25
2019-04-06T10:34:06.200Z,101463.20
2019-04-06T10:37:04.905Z,101457.67
2019-04-06T10:40:03.810Z,101453.94
2019-04-06T10:43:11.389Z,101455.95
2019-04-06T10:46:36.058Z,101449.02
2019-04-06T10:52:54.703Z,101444.08
2019-04-06T10:55:51.021Z,101451.45
2019-04-06T10:58:27.877Z,101440.25
2019-04-06T11:01:08.061Z,101436.78
2019-04-06T11:03:42.341Z,101439.41
2019-04-06T11:06:20.141Z,101442.34
2019-04-06T11:09:07.041Z,101432.23
2019-04-06T11:11:43.465Z,101429.56
2019-04-06T11:14:31.720Z,101425.62
2019-04-06T11:17:21.859Z,101423.82
2019-04-06T11:20:05.601Z,101415.28
2019-04-06T11:22:57.130Z,101420.45
2019-04-06T11:25:51.836Z,101413.20
2019-04-06T11:28:48.867Z,101412.45
2019-04-06T11:31:43.280Z,101414.05
2019-04-06T11:34:39.887Z,101407.77
2019-04-06T11:37:33.753Z,101403.76
2019-04-06T11:40:16.266Z,101394.62
2019-04-06T11:43:04.014Z,101395.20
2019-04-06T11:46:06.430Z,101388.00
2019-04-06T11:48:46.188Z,101388.72
2019-04-06T11:51:34.450Z,101386.00
2019-04-06T11:54:18.902Z,101383.73
2019-04-06T11:57:15.408Z,101375.72
2019-04-06T12:00:03.681Z,101370.17
2019-04-06T12:02:46.294Z,101370.97
2019-04-06T12:05:31.826Z,101368.52
2019-04-06T12:08:14.947Z,101370.11
2019-04-06T12:10:48.448Z,101360.63
2019-04-06T12:13:27.969Z,101357.09
2019-04-06T12:16:10.380Z,101364.25
2019-04-06T12:18:46.177Z,101357.62
2019-04-06T12:21:21.856Z,101351.63
2019-04-06T12:24:03.822Z,101350.76
2019-04-06T12:26:39.982Z,101341.32
2019-04-06T12:29:30.927Z,101345.80
2019-04-06T12:32:04.014Z,101338.43
2019-04-06T12:34:37.223Z,101346.88
2019-04-06T12:37:19.486Z,101349.68
2019-04-06T12:40:04.637Z,101336.58
2019-04-06T12:42:49.661Z,101348.09
2019-04-06T12:45:40.756Z,101336.45
2019-04-06T12:48:32.172Z,101332.04
2019-04-06T12:51:19.454Z,101333.62
2019-04-06T12:53:55.361Z,101345.31
2019-04-06T12:56:37.769Z,101327.43
2019-04-06T12:59:27.076Z,101325.06
2019-04-06T13:02:00.270Z,101324.00
2019-04-06T13:04:39.702Z,101327.93
2019-04-06T13:07:26.877Z,101326.13
2019-04-06T13:10:03.139Z,101326.93
2019-04-06T13:12:43.470Z,101318.91
2019-04-06T13:15:22.604Z,101314.92
2019-04-06T13:18:14.155Z,101309.69
2019-04-06T13:21:03.564Z,101313.97
2019-04-06T13:23:53.051Z,101315.08
2019-04-06T13:26:45.380Z,101319.14
2019-04-06T13:29:28.222Z,101310.39
2019-04-06T13:32:16.744Z,101311.73
2019-04-06T13:34:54.679Z,101316.22
2019-04-06T13:37:33.916Z,101309.94
2019-04-06T13:40:27.376Z,101308.05
2019-04-06T13:43:09.612Z,101302.31
2019-04-06T13:45:48.541Z,101292.50
2019-04-06T13:48:25.545Z,101295.45
2019-04-06T13:51:15.175Z,101290.67
2019-04-06T13:53:58.270Z,101289.24
2019-04-06T13:56:40.778Z,101287.44
2019-04-06T13:59:22.978Z,101291.33
2019-04-06T14:02:13.252Z,101285.84
2019-04-06T14:04:58.589Z,101284.56
2019-04-06T14:07:46.012Z,101277.54
2019-04-06T14:10:19.013Z,101280.02
2019-04-06T14:13:01.248Z,101282.11
2019-04-06T14:15:49.679Z,101284.78
2019-04-06T14:18:40.888Z,101274.66
2019-04-06T14:21:23.143Z,101273.73
2019-04-06T14:23:59.260Z,101276.12
2019-04-06T14:26:47.503Z,101275.18
2019-04-06T14:29:20.594Z,101269.30
2019-04-06T14:31:57.071Z,101266.91
2019-04-06T14:34:36.562Z,101266.30
2019-04-06T14:37:09.734Z,101273.59
2019-04-06T14:39:51.779Z,101270.58
2019-04-06T14:42:27.737Z,101269.08
2019-04-06T14:45:18.861Z,101267.77
2019-04-06T14:47:55.808Z,101264.63
2019-04-06T14:50:35.201Z,101262.51
2019-04-06T14:53:24.945Z,101264.23
2019-04-06T14:56:01.040Z,101267.57
2019-04-06T14:58:52.583Z,101253.84
2019-04-06T15:01:41.183Z,101257.34
2019-04-06T15:04:19.546Z,101261.67
2019-04-06T15:07:09.422Z,101259.61
2019-04-06T15:09:36.846Z,101253.23
2019-04-06T15:12:10.368Z,101258.97
2019-04-06T15:14:49.414Z,101256.55
2019-04-06T15:17:28.947Z,101262.89
2019-04-06T15:20:11.315Z,101263.49
2019-04-06T15:22:50.447Z,101261.52
2019-04-06T15:25:28.893Z,101264.97
2019-04-06T15:28:08.207Z,101261.64
2019-04-06T15:30:44.060Z,101269.27
2019-04-06T15:33:20.140Z,101267.13
2019-04-06T15:35:56.298Z,101268.80
2019-04-06T15:38:36.543Z,101271.29
2019-04-06T15:41:21.666Z,101272.94
2019-04-06T15:43:54.794Z,101268.01
2019-04-06T15:46:44.643Z,101266.94
2019-04-06T15:49:28.350Z,101268.78
2019-04-06T15:52:10.154Z,101262.92
2019-04-06T15:54:45.296Z,101260.91
2019-04-06T15:57:18.462Z,101260.91
2019-04-06T15:59:54.625Z,101257.45
2019-04-06T16:02:39.998Z,101258.48
2019-04-06T16:05:21.559Z,101256.11
2019-04-06T16:08:03.326Z,101263.77
2019-04-06T16:10:53.060Z,101271.94
2019-04-06T16:13:42.581Z,101265.80
2019-04-06T16:16:21.427Z,101262.00
2019-04-06T16:18:57.553Z,101261.48
2019-04-06T16:21:46.645Z,101261.97
2019-04-06T16:24:28.730Z,101261.17
2019-04-06T16:27:01.893Z,101260.59
2019-04-06T16:29:36.047Z,101262.50
2019-04-06T16:32:12.170Z,101261.01
2019-04-06T16:34:44.923Z,101261.97
2019-04-06T16:37:18.085Z,101264.84
2019-04-06T16:39:51.231Z,101269.38
2019-04-06T16:42:30.611Z,101279.22
2019-04-06T16:45:22.873Z,101280.38
2019-04-06T16:47:56.973Z,101280.56
2019-04-06T16:50:32.729Z,101285.06
2019-04-06T16:53:12.495Z,101281.22
2019-04-06T16:55:45.806Z,101286.58
2019-04-06T16:58:35.528Z,101282.91
2019-04-06T17:01:21.034Z,101294.21
2019-04-06T17:03:55.639Z,101288.98
2019-04-06T17:06:29.542Z,101295.00
2019-04-06T17:09:15.745Z,101298.59
2019-04-06T17:11:49.890Z,101292.44
2019-04-06T17:14:25.992Z,101301.17
2019-04-06T17:17:01.780Z,101296.95
2019-04-06T17:19:44.106Z,101295.03
2019-04-06T17:22:29.345Z,101299.89
2019-04-06T17:25:05.433Z,101297.40
2019-04-06T17:27:50.577Z,101293.67
2019-04-06T17:30:26.975Z,101294.34
2019-04-06T17:33:00.428Z,101295.67
2019-04-06T17:35:50.516Z,101297.70
2019-04-06T17:38:27.029Z,101294.14
2019-04-06T17:41:06.478Z,101296.89
2019-04-06T17:43:43.027Z,101306.30
2019-04-06T17:46:22.467Z,101301.08
2019-04-06T17:49:01.334Z,101297.77
2019-04-06T17:51:36.678Z,101296.88
2019-04-06T17:54:15.698Z,101304.95
2019-04-06T17:56:50.315Z,101302.64
2019-04-06T17:59:32.480Z,101308.91
2019-04-06T18:02:08.986Z,101307.19
2019-04-06T18:04:59.076Z,101312.16
2019-04-06T18:07:41.542Z,101312.44
2019-04-06T18:10:14.662Z,101312.34
2019-04-06T18:12:47.744Z,101312.44
2019-04-06T18:15:22.840Z,101308.63
2019-04-06T18:17:54.416Z,101312.09
2019-04-06T18:20:26.104Z,101306.98
2019-04-06T18:22:58.152Z,101302.47
2019-04-06T18:25:29.748Z,101298.08
2019-04-06T18:28:01.587Z,101301.94
2019-04-06T18:30:33.242Z,101297.26
2019-04-06T18:33:09.437Z,101301.39
2019-04-06T18:35:41.051Z,101297.06
2019-04-06T18:38:16.848Z,101301.25
2019-04-06T18:40:48.361Z,101296.97
2019-04-06T18:43:20.858Z,101297.14
2019-04-06T18:45:52.350Z,101295.88
2019-04-06T18:48:23.888Z,101294.72
2019-04-06T18:50:55.455Z,101293.15
2019-04-06T18:53:28.019Z,101285.05
2019-04-06T18:56:00.894Z,101293.86
2019-04-06T18:58:32.493Z,101287.00
2019-04-06T19:01:04.594Z,101289.73
2019-04-06T19:03:36.795Z,101296.12
2019-04-06T19:06:09.521Z,101294.87
2019-04-06T19:08:41.024Z,101290.98
2019-04-06T19:11:12.668Z,101292.82
2019-04-06T19:13:44.365Z,101297.28
2019-04-06T19:16:18.015Z,101285.94
2019-04-06T19:18:50.086Z,101287.27
2019-04-06T19:21:23.236Z,101295.84
2019-04-06T19:23:54.997Z,101293.72
2019-04-06T19:26:26.567Z,101296.94
2019-04-06T19:28:58.187Z,101289.89
2019-04-06T19:31:30.710Z,101291.75
2019-04-06T19:34:02.333Z,101291.92
2019-04-06T19:36:34.061Z,101290.19
2019-04-06T19:39:08.637Z,101292.70
2019-04-06T19:41:40.687Z,101298.07
2019-04-06T19:44:13.265Z,101294.94
2019-04-06T19:46:46.053Z,101297.33
2019-04-06T19:49:17.869Z,101292.43
2019-04-06T19:51:51.533Z,101297.81
2019-04-06T19:54:23.214Z,101296.69
2019-04-06T19:56:55.159Z,101296.69
2019-04-06T19:59:26.773Z,101297.92
2019-04-06T20:01:58.691Z,101296.27
2019-04-06T20:04:30.808Z,101300.84
2019-04-06T20:07:03.683Z,101299.39
2019-04-06T20:09:36.592Z,101299.65
2019-04-06T20:12:08.167Z,101303.55
2019-04-06T20:14:39.724Z,101301.17
2019-04-06T20:17:11.228Z,101302.02
2019-04-06T20:19:42.892Z,101296.52
2019-04-06T20:22:14.875Z,101297.91
2019-04-06T20:24:47.619Z,101295.92
2019-04-06T20:27:21.272Z,101298.78
2019-04-06T20:29:53.504Z,101291.63
2019-04-06T20:32:25.601Z,101295.48
2019-04-06T20:34:57.402Z,101291.69
2019-04-06T20:37:32.382Z,101292.69
2019-04-06T20:40:05.284Z,101296.98
2019-04-06T20:42:36.950Z,101294.81
2019-04-06T20:45:09.221Z,101297.19
2019-04-06T20:47:40.888Z,101298.88
2019-04-06T20:50:12.385Z,101301.03
2019-04-06T20:52:43.983Z,101301.60
2019-04-06T20:55:15.495Z,101308.30
2019-04-06T20:57:48.326Z,101308.47
2019-04-06T21:00:20.797Z,101300.81
2019-04-06T21:02:52.250Z,101304.50
2019-04-06T21:05:24.230Z,101304.16
2019-04-06T21:07:56.413Z,101313.61
2019-04-06T21:10:28.242Z,101305.94
2019-04-06T21:12:59.907Z,101303.13
2019-04-06T21:15:31.924Z,101303.36
2019-04-06T21:18:03.458Z,101296.05
2019-04-06T21:20:36.868Z,101294.84
2019-04-06T21:23:09.645Z,101297.30
2019-04-06T21:25:41.748Z,101290.63
2019-04-06T21:28:14.488Z,101299.83
2019-04-06T21:30:47.873Z,101292.54
2019-04-06T21:33:20.095Z,101291.59
2019-04-06T21:35:51.592Z,101291.55
2019-04-06T21:38:23.107Z,101288.85
2019-04-06T21:40:54.673Z,101283.04
2019-04-06T21:43:27.790Z,101283.48
2019-04-06T21:45:59.292Z,101281.82
2019-04-06T21:48:31.318Z,101283.83
2019-04-06T21:51:03.936Z,101280.84
2019-04-06T21:53:35.872Z,101278.09
2019-04-06T21:56:08.294Z,101270.24
2019-04-06T21:58:40.444Z,101275.07
2019-04-06T22:01:13.970Z,101271.00
2019-04-06T22:03:46.210Z,101271.86
2019-04-06T22:06:17.439Z,101273.59
2019-04-06T22:08:48.999Z,101278.84
2019-04-06T22:11:20.523Z,101274.98
2019-04-06T22:13:52.195Z,101276.94
2019-04-06T22:16:23.698Z,101275.83
2019-04-06T22:18:55.251Z,101268.30
2019-04-06T22:21:27.115Z,101269.84
2019-04-06T22:23:59.118Z,101270.59
2019-04-06T22:26:30.720Z,101265.80
2019-04-06T22:29:02.717Z,101265.74
2019-04-06T22:31:34.347Z,101272.84
2019-04-06T22:34:05.875Z,101275.70
2019-04-06T22:36:37.424Z,101268.17
2019-04-06T22:39:10.067Z,101273.34
2019-04-06T22:41:42.048Z,101271.23
2019-04-06T22:44:13.686Z,101262.30
2019-04-06T22:46:45.143Z,101266.97
2019-04-06T22:49:16.694Z,101267.42
2019-04-06T22:51:48.337Z,101264.95
2019-04-06T22:54:19.862Z,101265.77
2019-04-06T22:56:52.043Z,101263.22
2019-04-06T22:59:23.651Z,101262.88
2019-04-06T23:01:55.146Z,101257.01
2019-04-06T23:04:28.714Z,101257.01
2019-04-06T23:07:02.071Z,101256.59
2019-04-06T23:09:34.603Z,101254.42
2019-04-06T23:12:06.432Z,101249.24
2019-04-06T23:14:38.338Z,101250.56
2019-04-06T23:17:10.246Z,101250.92
2019-04-06T23:19:42.017Z,101252.97
2019-04-06T23:22:14.136Z,101244.74
2019-04-06T23:24:45.871Z,101249.62
2019-04-06T23:27:17.377Z,101248.47
2019-04-06T23:29:48.898Z,101242.65
2019-04-06T23:32:20.536Z,101245.30
2019-04-06T23:34:59.458Z,101244.16
2019-04-06T23:37:26.267Z,101249.99
2019-04-06T23:39:58.448Z,101249.12
2019-04-06T23:42:31.899Z,101249.12
2019-04-06T23:45:03.582Z,101252.67
2019-04-06T23:47:35.187Z,101251.44
2019-04-06T23:50:07.650Z,101248.88
2019-04-06T23:52:39.875Z,101250.66
2019-04-06T23:55:11.944Z,101244.05
2019-04-06T23:57:44.567Z,101241.41
